Time;durP1;ratioP1;P1;durP2;ratioP2;P2;SDS_P1;SDS_P2;PMS_P1;PMS_P2;Temp;Humidity;BMP_temperature;BMP_pressure;BME280_temperature;BME280_humidity;BME280_pressure;Samples;Min_cycle;Max_cycle;Signal;HPM_P1;HPM_P2
2023/05/29 00:02:44;;;;;;;8.18;1.58;;;;;;;7.75;100.00;102583.50;4999176;28;21294;-79
2023/05/29 00:05:28;;;;;;;7.63;1.30;;;;;;;7.77;100.00;102579.97;4999306;28;20045;-79
2023/05/29 00:08:11;;;;;;;4.15;1.27;;;;;;;7.74;100.00;102584.38;4984216;28;20057;-79
2023/05/29 00:10:56;;;;;;;7.05;1.60;;;;;;;7.73;100.00;102579.09;4998832;28;20288;-78
2023/05/29 00:13:40;;;;;;;8.68;1.85;;;;;;;7.71;100.00;102581.78;4999795;28;20543;-78
2023/05/29 00:16:24;;;;;;;3.75;1.65;;;;;;;7.70;100.00;102584.41;4996846;28;20107;-78
2023/05/29 00:19:08;;;;;;;7.50;1.60;;;;;;;7.69;100.00;102593.22;4996853;28;20780;-78
2023/05/29 00:21:52;;;;;;;6.32;1.60;;;;;;;7.67;100.00;102585.31;4997685;28;20083;-78
2023/05/29 00:24:36;;;;;;;8.57;1.40;;;;;;;7.66;100.00;102582.66;4998326;28;20053;-78
2023/05/29 00:27:20;;;;;;;2.85;1.02;;;;;;;7.65;100.00;102589.72;4998628;28;20069;-78
2023/05/29 00:30:05;;;;;;;2.92;1.08;;;;;;;7.63;100.00;102583.56;4996219;28;20128;-78
2023/05/29 00:32:51;;;;;;;7.97;1.83;;;;;;;7.60;100.00;102587.09;4978601;28;20131;-79
2023/05/29 00:35:35;;;;;;;5.40;1.52;;;;;;;7.58;100.00;102588.00;4997390;28;20060;-78
2023/05/29 00:38:20;;;;;;;4.78;1.35;;;;;;;7.56;100.00;102585.34;4983418;28;20048;-79
2023/05/29 00:41:04;;;;;;;6.20;1.30;;;;;;;7.55;100.00;102595.91;4997999;28;20048;-79
2023/05/29 00:43:48;;;;;;;8.90;1.98;;;;;;;7.53;100.00;102587.13;4983276;28;20095;-79
2023/05/29 00:46:33;;;;;;;5.00;1.52;;;;;;;7.51;100.00;102596.81;4998791;28;20094;-78
2023/05/29 00:49:17;;;;;;;2.70;1.40;;;;;;;7.50;100.00;102605.59;4999663;28;20076;-79
2023/05/29 00:52:01;;;;;;;9.93;1.70;;;;;;;7.46;100.00;102610.88;4997050;28;20504;-79
2023/05/29 00:54:46;;;;;;;5.25;1.40;;;;;;;7.45;100.00;102614.41;4997967;28;20068;-79
2023/05/29 00:57:31;;;;;;;4.13;1.55;;;;;;;7.41;100.00;102609.16;4983476;28;20187;-79
2023/05/29 01:00:15;;;;;;;8.70;1.45;;;;;;;7.39;100.00;102618.81;4996500;28;20064;-79
2023/05/29 01:03:02;;;;;;;5.43;1.40;;;;;;;7.34;100.00;102616.19;4996560;28;20056;-79
2023/05/29 01:05:47;;;;;;;8.20;1.58;;;;;;;7.32;100.00;102617.97;4998045;28;20049;-79
2023/05/29 01:08:31;;;;;;;3.75;1.30;;;;;;;7.32;100.00;102615.31;4997747;28;21847;-79
2023/05/29 01:11:24;;;;;;;9.65;1.90;;;;;;;7.30;100.00;102619.75;4995159;28;20579;-79
2023/05/29 01:14:17;;;;;;;9.68;1.90;;;;;;;7.30;100.00;102617.09;4997290;28;20120;-79
2023/05/29 01:17:24;;;;;;;5.03;1.40;;;;;;;7.29;100.00;102615.31;4995448;28;20073;-78
2023/05/29 01:20:30;;;;;;;5.63;1.88;;;;;;;7.29;100.00;102616.22;4997530;28;20052;-78
2023/05/29 01:23:33;;;;;;;4.95;1.45;;;;;;;7.28;100.00;102619.72;4997615;28;20519;-78
2023/05/29 01:26:22;;;;;;;5.35;2.22;;;;;;;7.27;100.00;102615.34;4997569;28;20041;-78
2023/05/29 01:29:07;;;;;;;6.47;1.35;;;;;;;7.26;100.00;102610.06;4997402;28;20048;-77
2023/05/29 01:31:53;;;;;;;6.65;1.42;;;;;;;7.26;100.00;102617.97;4982168;28;20103;-77
2023/05/29 01:34:37;;;;;;;6.53;1.48;;;;;;;7.25;100.00;102605.69;4997471;28;20092;-78
2023/05/29 01:37:21;;;;;;;8.82;1.77;;;;;;;7.23;100.00;102605.69;4981019;28;20049;-77
2023/05/29 01:40:05;;;;;;;5.60;1.50;;;;;;;7.24;100.00;102609.22;4982392;28;20228;-78
2023/05/29 01:42:50;;;;;;;7.95;1.42;;;;;;;7.20;100.00;102603.94;4997140;28;20057;-78
2023/05/29 01:45:34;;;;;;;6.28;1.50;;;;;;;7.19;100.00;102593.41;4997146;28;20096;-78
2023/05/29 01:48:18;;;;;;;8.68;1.60;;;;;;;7.20;100.00;102600.44;4997815;28;20050;-77
2023/05/29 01:51:02;;;;;;;7.18;2.00;;;;;;;7.21;100.00;102602.19;4997905;28;20133;-79
2023/05/29 01:53:47;;;;;;;6.57;2.13;;;;;;;7.18;100.00;102605.72;4996755;28;20052;-78
2023/05/29 01:56:31;;;;;;;8.52;1.95;;;;;;;7.16;100.00;102602.22;4996125;28;20060;-78
2023/05/29 01:59:15;;;;;;;5.93;1.70;;;;;;;7.14;100.00;102601.31;4978366;28;20057;-78
2023/05/29 02:02:06;;;;;;;3.50;1.77;;;;;;;7.13;100.00;102596.94;4995534;28;20970;-79
2023/05/29 02:04:51;;;;;;;6.85;1.85;;;;;;;7.11;100.00;102601.34;4979135;28;20049;-79
2023/05/29 02:07:36;;;;;;;8.30;1.52;;;;;;;7.12;100.00;102608.34;4981610;28;20183;-78
2023/05/29 02:10:20;;;;;;;10.40;1.60;;;;;;;7.10;100.00;102615.41;4995958;28;20675;-79
2023/05/29 02:13:05;;;;;;;4.25;1.70;;;;;;;7.07;100.00;102615.38;4995036;28;20057;-79
2023/05/29 02:15:49;;;;;;;7.13;1.70;;;;;;;7.07;100.00;102611.00;4968175;28;20594;-79
2023/05/29 02:18:34;;;;;;;7.50;1.75;;;;;;;7.09;100.00;102618.91;4977900;28;20092;-79
2023/05/29 02:21:18;;;;;;;5.47;1.85;;;;;;;7.12;100.00;102624.16;4996777;28;20080;-79
2023/05/29 02:24:02;;;;;;;8.02;1.92;;;;;;;7.13;100.00;102619.78;4996421;28;20780;-79
2023/05/29 02:26:48;;;;;;;5.05;1.88;;;;;;;7.11;100.00;102617.16;4996133;28;20065;-79
2023/05/29 02:29:32;;;;;;;6.93;1.63;;;;;;;7.14;100.00;102616.28;4981403;28;20092;-79
2023/05/29 02:32:16;;;;;;;5.95;1.73;;;;;;;7.16;100.00;102619.75;4996494;28;20074;-80
2023/05/29 02:35:00;;;;;;;9.55;2.10;;;;;;;7.16;100.00;102612.75;4997508;28;20053;-79
2023/05/29 02:37:44;;;;;;;8.15;2.33;;;;;;;7.17;100.00;102614.50;4997574;28;20088;-79
2023/05/29 02:40:28;;;;;;;9.00;1.98;;;;;;;7.19;100.00;102625.91;4996572;28;20049;-79
2023/05/29 02:43:13;;;;;;;6.03;1.95;;;;;;;7.19;100.00;102620.63;4996538;28;20065;-79
2023/05/29 02:45:57;;;;;;;6.05;1.77;;;;;;;7.23;100.00;102631.19;4968063;28;20047;-79
2023/05/29 02:48:41;;;;;;;5.15;1.90;;;;;;;7.27;100.00;102625.00;4995059;28;21897;-79
2023/05/29 02:51:25;;;;;;;11.00;1.90;;;;;;;7.29;100.00;102620.59;4996861;28;20563;-79
2023/05/29 02:54:12;;;;;;;9.85;2.92;;;;;;;7.29;100.00;102626.75;4984681;28;20531;-79
2023/05/29 02:56:56;;;;;;;6.15;1.65;;;;;;;7.30;100.00;102622.38;5001435;28;20045;-79
2023/05/29 02:59:40;;;;;;;11.30;1.88;;;;;;;7.34;100.00;102626.72;4982943;28;20076;-79
2023/05/29 03:02:24;;;;;;;4.90;1.90;;;;;;;7.37;100.00;102620.56;4999395;28;20095;-79
2023/05/29 03:05:09;;;;;;;5.97;1.60;;;;;;;7.39;100.00;102613.53;4998686;28;20067;-78
2023/05/29 03:07:53;;;;;;;9.75;2.08;;;;;;;7.44;100.00;102612.66;4999842;28;20041;-77
2023/05/29 03:10:37;;;;;;;6.35;2.20;;;;;;;7.45;100.00;102611.78;4999148;28;20137;-78
2023/05/29 03:13:21;;;;;;;5.47;1.88;;;;;;;7.47;100.00;102609.13;4999722;28;20552;-78
2023/05/29 03:16:07;;;;;;;8.80;1.88;;;;;;;7.48;100.00;102606.47;4984758;28;20092;-78
2023/05/29 03:18:51;;;;;;;11.27;2.38;;;;;;;7.51;100.00;102597.69;4985655;28;20053;-78
2023/05/29 03:21:36;;;;;;;5.38;1.67;;;;;;;7.55;100.00;102604.69;5000286;28;20088;-78
2023/05/29 03:24:20;;;;;;;8.45;1.95;;;;;;;7.61;100.00;102603.78;4999401;28;20123;-78
2023/05/29 03:27:04;;;;;;;5.80;1.83;;;;;;;7.65;100.00;102602.91;4984762;28;20079;-77
2023/05/29 03:29:48;;;;;;;7.53;2.13;;;;;;;7.70;100.00;102611.66;4982710;28;20044;-78
2023/05/29 03:32:32;;;;;;;4.55;1.83;;;;;;;7.74;100.00;102617.81;4998120;28;20140;-78
2023/05/29 03:35:16;;;;;;;5.03;1.63;;;;;;;7.81;100.00;102608.09;4999502;28;20057;-77
2023/05/29 03:38:00;;;;;;;8.50;1.90;;;;;;;7.85;100.00;102610.69;4999829;28;20577;-78
2023/05/29 03:40:44;;;;;;;6.75;1.70;;;;;;;7.92;100.00;102616.81;4998907;28;20048;-78
2023/05/29 03:43:28;;;;;;;5.80;1.40;;;;;;;7.99;100.00;102615.91;4984620;28;20080;-77
2023/05/29 03:46:12;;;;;;;6.82;2.03;;;;;;;8.07;100.00;102615.81;5000951;28;20084;-78
2023/05/29 03:48:57;;;;;;;6.63;1.98;;;;;;;8.14;100.00;102617.56;4999477;28;20048;-78
2023/05/29 03:51:41;;;;;;;7.35;1.75;;;;;;;8.19;100.00;102630.72;4984541;28;20125;-79
2023/05/29 03:54:25;;;;;;;4.38;1.80;;;;;;;8.22;100.00;102625.41;4981958;28;20088;-78
2023/05/29 03:57:09;;;;;;;6.13;1.73;;;;;;;8.27;100.00;102631.53;4982980;28;20106;-78
2023/05/29 03:59:53;;;;;;;7.25;1.83;;;;;;;8.31;100.00;102640.31;4996083;28;20060;-78
2023/05/29 04:02:41;;;;;;;6.65;1.65;;;;;;;8.35;100.00;102639.41;4999260;28;20081;-77
2023/05/29 04:05:25;;;;;;;6.00;1.77;;;;;;;8.38;100.00;102647.28;4979971;28;20056;-78
2023/05/29 04:08:10;;;;;;;8.85;1.70;;;;;;;8.42;100.00;102650.78;4999023;28;20044;-77
2023/05/29 04:10:54;;;;;;;6.10;1.58;;;;;;;8.47;100.00;102658.66;4984404;28;20049;-78
2023/05/29 04:13:38;;;;;;;5.90;2.00;;;;;;;8.50;100.00;102662.16;4998925;28;20612;-78
2023/05/29 04:16:22;;;;;;;4.65;2.13;;;;;;;8.55;100.00;102657.75;4983573;28;20068;-78
2023/05/29 04:19:06;;;;;;;5.10;1.67;;;;;;;8.60;100.00;102654.22;4984087;28;20065;-78
2023/05/29 04:21:50;;;;;;;12.57;2.40;;;;;;;8.65;100.00;102660.31;4998805;28;20057;-77
2023/05/29 04:24:35;;;;;;;5.68;1.80;;;;;;;8.68;100.00;102661.16;4998174;28;20137;-78
2023/05/29 04:27:19;;;;;;;5.18;1.90;;;;;;;8.73;100.00;102650.59;4998501;28;20673;-78
2023/05/29 04:30:05;;;;;;;7.28;1.70;;;;;;;8.79;100.00;102658.44;4983474;28;20097;-77
2023/05/29 04:32:49;;;;;;;3.38;1.63;;;;;;;8.86;100.00;102658.38;4983411;28;20119;-77
2023/05/29 04:35:34;;;;;;;3.88;1.40;;;;;;;8.89;100.00;102651.28;4998288;28;20049;-79
2023/05/29 04:38:24;;;;;;;6.72;1.52;;;;;;;8.95;100.00;102656.50;4983849;28;20405;-76
2023/05/29 04:41:10;;;;;;;5.28;1.60;;;;;;;8.99;100.00;102656.50;4998435;28;20737;-77
2023/05/29 04:43:58;;;;;;;7.93;1.48;;;;;;;9.04;100.00;102655.56;4969843;28;20516;-79
2023/05/29 04:46:43;;;;;;;3.92;1.88;;;;;;;9.12;100.00;102659.88;4998523;28;20116;-78
2023/05/29 04:49:27;;;;;;;6.13;2.10;;;;;;;9.17;100.00;102658.97;4994684;28;20112;-77
2023/05/29 04:52:11;;;;;;;3.58;1.92;;;;;;;9.26;100.00;102668.53;4997867;28;20074;-78
2023/05/29 04:54:56;;;;;;;8.35;1.88;;;;;;;9.34;100.00;102676.41;4996383;28;20131;-77
2023/05/29 04:57:40;;;;;;;5.28;1.92;;;;;;;9.41;100.00;102669.28;4998426;28;20175;-78
2023/05/29 05:00:25;;;;;;;6.32;1.40;;;;;;;9.43;100.00;102671.00;4982626;28;20041;-78
2023/05/29 05:03:10;;;;;;;6.47;1.63;;;;;;;9.44;100.00;102666.59;4998206;28;20545;-77
2023/05/29 05:05:54;;;;;;;3.53;1.50;;;;;;;9.45;100.00;102666.59;4999415;28;20175;-78
2023/05/29 05:08:38;;;;;;;6.38;1.60;;;;;;;9.48;100.00;102674.47;4998380;28;20065;-78
2023/05/29 05:11:23;;;;;;;7.50;1.60;;;;;;;9.52;100.00;102672.66;4997658;28;20052;-78
2023/05/29 05:14:07;;;;;;;5.72;1.88;;;;;;;9.56;100.00;102671.75;4996810;28;21958;-76
2023/05/29 05:16:51;;;;;;;3.72;1.67;;;;;;;9.64;100.00;102679.56;4997293;28;20152;-75
2023/05/29 05:19:35;;;;;;;4.82;1.77;;;;;;;9.64;100.00;102683.09;4982725;28;20053;-78
2023/05/29 05:22:19;;;;;;;7.65;1.88;;;;;;;9.70;100.00;102678.63;4997157;28;20104;-77
2023/05/29 05:25:04;;;;;;;8.57;1.70;;;;;;;9.72;100.00;102677.72;4982661;28;20064;-78
2023/05/29 05:27:48;;;;;;;4.78;1.42;;;;;;;9.78;100.00;102680.31;4997858;28;20084;-78
2023/05/29 05:30:32;;;;;;;3.45;1.30;;;;;;;9.85;100.00;102673.16;4998249;28;20072;-78
2023/05/29 05:33:16;;;;;;;9.52;1.45;;;;;;;9.91;100.00;102673.06;4996095;28;20064;-78
2023/05/29 05:36:01;;;;;;;6.38;1.45;;;;;;;10.00;100.00;102663.25;4979975;28;20045;-78
2023/05/29 05:38:45;;;;;;;5.38;1.38;;;;;;;10.09;100.00;102668.44;4998578;28;20076;-78
2023/05/29 05:41:29;;;;;;;6.63;1.50;;;;;;;10.14;100.00;102666.56;4998124;28;20108;-78
2023/05/29 05:44:13;;;;;;;4.03;1.23;;;;;;;10.23;100.00;102670.84;4995752;28;20061;-78
2023/05/29 05:46:57;;;;;;;3.80;1.20;;;;;;;10.32;100.00;102669.84;4978218;28;20053;-76
2023/05/29 05:49:43;;;;;;;4.65;1.23;;;;;;;10.40;100.00;102675.91;4998129;28;20108;-77
2023/05/29 05:52:30;;;;;;;6.82;1.60;;;;;;;10.50;100.00;102679.31;4996121;28;20090;-77
2023/05/29 05:55:15;;;;;;;6.78;1.60;;;;;;;10.63;100.00;102673.81;4968417;28;20420;-77
2023/05/29 05:57:59;;;;;;;7.68;1.20;;;;;;;10.72;100.00;102679.84;4996999;28;20119;-77
2023/05/29 06:00:43;;;;;;;5.97;1.50;;;;;;;10.76;100.00;102677.13;4995310;28;20049;-77
2023/05/29 06:03:27;;;;;;;4.80;1.42;;;;;;;10.76;100.00;102685.06;4996952;28;20075;-77
2023/05/29 06:06:11;;;;;;;15.32;1.95;;;;;;;10.71;100.00;102686.03;4997357;28;20725;-78
2023/05/29 06:08:56;;;;;;;6.63;1.35;;;;;;;10.76;100.00;102687.72;4996984;28;20627;-77
2023/05/29 06:11:40;;;;;;;7.38;1.60;;;;;;;10.86;100.00;102689.34;4995579;28;20053;-79
2023/05/29 06:14:25;;;;;;;4.90;1.33;;;;;;;10.98;100.00;102699.72;4997274;28;20075;-78
2023/05/29 06:17:09;;;;;;;8.45;1.50;;;;;;;11.07;100.00;102697.81;4996467;28;20662;-78
2023/05/29 06:19:53;;;;;;;8.07;1.90;;;;;;;11.12;100.00;102701.25;4996980;28;20077;-78
2023/05/29 06:22:37;;;;;;;6.32;1.88;;;;;;;11.12;100.00;102698.59;4996933;28;20127;-78
2023/05/29 06:25:21;;;;;;;6.88;1.63;;;;;;;11.09;100.00;102696.00;4995672;28;20049;-77
2023/05/29 06:28:06;;;;;;;3.83;1.55;;;;;;;11.13;100.00;102703.00;4995884;28;20139;-77
2023/05/29 06:30:50;;;;;;;9.68;1.50;;;;;;;11.21;100.00;102703.72;4985561;28;20107;-77
2023/05/29 06:33:36;;;;;;;9.10;1.83;;;;;;;11.28;100.00;102710.66;4981454;28;20061;-76
2023/05/29 06:36:21;;;;;;;8.80;1.88;;;;;;;11.30;100.00;102715.94;4995386;28;20547;-78
2023/05/29 06:39:05;;;;;;;6.25;1.80;;;;;;;11.25;100.00;102718.69;4996617;28;20438;-77
2023/05/29 06:41:49;;;;;;;6.90;1.58;;;;;;;11.18;100.00;102722.34;4996598;28;20503;-77
2023/05/29 06:44:33;;;;;;;9.35;1.77;;;;;;;11.10;100.00;102713.63;4994958;28;20080;-78
2023/05/29 06:47:17;;;;;;;6.88;2.08;;;;;;;11.03;100.00;102723.50;4995153;28;20736;-77
2023/05/29 06:50:01;;;;;;;5.85;1.73;;;;;;;11.03;100.00;102723.50;4980910;28;20052;-77
2023/05/29 06:52:45;;;;;;;7.43;1.83;;;;;;;11.03;100.00;102725.25;4994582;28;20638;-78
2023/05/29 06:55:29;;;;;;;4.78;1.58;;;;;;;10.98;99.14;102720.94;4996630;28;20072;-79
2023/05/29 06:58:13;;;;;;;9.13;1.73;;;;;;;11.04;100.00;102735.84;4981448;28;20539;-77
2023/05/29 07:00:58;;;;;;;12.07;2.25;;;;;;;11.16;98.19;102734.75;4977115;28;20599;-77
2023/05/29 07:03:42;;;;;;;9.38;1.80;;;;;;;11.22;97.58;102737.28;4984351;28;20045;-78
2023/05/29 07:06:26;;;;;;;7.95;2.03;;;;;;;11.25;97.70;102734.59;4994891;28;20088;-77
2023/05/29 07:09:11;;;;;;;7.60;1.85;;;;;;;11.34;98.39;102743.28;4996632;28;20053;-78
2023/05/29 07:11:55;;;;;;;8.65;2.15;;;;;;;11.46;97.98;102742.16;4968239;28;20133;-78
2023/05/29 07:14:39;;;;;;;7.95;2.00;;;;;;;11.63;98.95;102747.16;4980974;28;20048;-77
2023/05/29 07:17:24;;;;;;;7.68;1.92;;;;;;;11.83;97.79;102757.38;4995379;28;20172;-77
2023/05/29 07:20:08;;;;;;;8.45;2.05;;;;;;;11.88;95.25;102755.47;4979797;28;20057;-77
2023/05/29 07:22:52;;;;;;;7.95;2.08;;;;;;;11.84;95.84;102751.16;4996480;28;20049;-77
2023/05/29 07:25:36;;;;;;;8.88;2.00;;;;;;;11.89;96.09;102756.38;4997290;28;20453;-77
2023/05/29 07:28:20;;;;;;;8.70;1.88;;;;;;;11.84;93.53;102755.59;4996520;28;20822;-76
2023/05/29 07:31:04;;;;;;;8.82;2.20;;;;;;;11.73;94.65;102746.06;4995320;28;20505;-77
2023/05/29 07:33:48;;;;;;;9.63;1.88;;;;;;;11.82;96.43;102752.94;4995233;28;20057;-76
2023/05/29 07:36:33;;;;;;;6.95;2.20;;;;;;;11.85;94.30;102762.63;4995724;28;20515;-79
2023/05/29 07:39:17;;;;;;;7.15;2.13;;;;;;;11.80;95.81;102754.78;4996094;28;20052;-77
2023/05/29 07:42:02;;;;;;;7.05;1.63;;;;;;;11.78;95.73;102752.13;4999428;28;20087;-78
2023/05/29 07:44:47;;;;;;;10.63;1.80;;;;;;;11.78;95.67;102752.13;4984378;28;21065;-78
2023/05/29 07:47:31;;;;;;;7.78;2.00;;;;;;;11.85;96.19;102754.66;4981151;28;20113;-77
2023/05/29 07:50:15;;;;;;;8.15;2.15;;;;;;;12.01;94.09;102756.13;4984160;28;20052;-78
2023/05/29 07:53:00;;;;;;;6.88;2.10;;;;;;;12.12;94.18;102752.38;4999600;28;20032;-78
2023/05/29 07:55:44;;;;;;;6.10;1.85;;;;;;;12.24;94.42;102754.78;4999185;28;20104;-78
2023/05/29 07:58:29;;;;;;;11.65;2.20;;;;;;;12.48;94.26;102752.50;4984451;28;20060;-77
2023/05/29 08:01:13;;;;;;;8.63;2.28;;;;;;;12.62;92.93;102754.81;4997803;28;20048;-78
2023/05/29 08:03:57;;;;;;;7.18;1.95;;;;;;;12.68;91.97;102746.69;4984006;28;20787;-78
2023/05/29 08:06:42;;;;;;;7.68;1.90;;;;;;;12.74;91.19;102750.97;4984240;28;20057;-77
2023/05/29 08:09:26;;;;;;;9.70;2.17;;;;;;;12.79;91.58;102748.22;4984142;28;20040;-78
2023/05/29 08:12:10;;;;;;;9.35;1.85;;;;;;;12.91;90.74;102745.25;4998967;28;20048;-77
2023/05/29 08:14:54;;;;;;;8.68;2.10;;;;;;;12.98;88.71;102748.63;4998745;28;20875;-76
2023/05/29 08:17:38;;;;;;;7.38;2.15;;;;;;;12.98;88.80;102753.94;4998879;28;20191;-77
2023/05/29 08:20:22;;;;;;;9.95;2.10;;;;;;;13.03;88.52;102768.00;4997727;28;20080;-78
2023/05/29 08:23:06;;;;;;;9.27;2.20;;;;;;;13.14;89.15;102755.28;4997697;28;20052;-79
2023/05/29 08:25:50;;;;;;;12.73;2.10;;;;;;;13.25;89.36;102759.47;4977497;28;20049;-79
2023/05/29 08:28:34;;;;;;;8.65;1.80;;;;;;;13.20;88.62;102762.25;4981686;28;20060;-78
2023/05/29 08:31:19;;;;;;;6.90;1.88;;;;;;;13.14;89.54;102768.59;5000235;28;20060;-77
2023/05/29 08:34:03;;;;;;;9.80;2.17;;;;;;;13.05;89.45;102774.16;4986430;28;20939;-78
2023/05/29 08:36:47;;;;;;;9.20;2.33;;;;;;;12.87;85.49;102772.84;4983510;28;20087;-78
2023/05/29 08:39:31;;;;;;;7.75;1.90;;;;;;;12.76;87.68;102765.13;4999110;28;20088;-78
2023/05/29 08:42:22;;;;;;;7.20;1.63;;;;;;;12.74;87.45;102772.22;4998287;28;20057;-76
2023/05/29 08:45:07;;;;;;;6.13;1.73;;;;;;;12.78;88.04;102773.91;4997973;28;20120;-77
2023/05/29 08:47:53;;;;;;;5.50;1.73;;;;;;;12.73;85.39;102775.81;4983288;28;20045;-78
2023/05/29 08:50:44;;;;;;;7.15;2.20;;;;;;;12.79;86.38;102780.13;4982779;28;20678;-77
2023/05/29 08:53:27;;;;;;;7.10;1.95;;;;;;;12.91;87.81;102782.47;4983504;28;20099;-76
2023/05/29 08:56:12;;;;;;;8.52;2.33;;;;;;;12.97;88.16;102771.69;4998550;28;20053;-78
2023/05/29 08:58:57;;;;;;;8.65;2.75;;;;;;;12.97;86.34;102774.34;4996972;28;20115;-77
2023/05/29 09:01:42;;;;;;;7.72;1.92;;;;;;;13.07;88.77;102782.09;4982798;28;20413;-77
2023/05/29 09:04:30;;;;;;;9.55;1.88;;;;;;;13.14;89.46;102778.38;4998302;28;20053;-77
2023/05/29 09:07:15;;;;;;;8.43;1.92;;;;;;;13.19;89.07;102792.44;4997030;28;20124;-77
2023/05/29 09:10:00;;;;;;;11.93;2.17;;;;;;;13.16;90.09;102789.84;4968965;28;20068;-78
2023/05/29 09:12:44;;;;;;;7.95;2.08;;;;;;;13.02;89.05;102793.72;4965519;28;20116;-78
2023/05/29 09:15:28;;;;;;;13.23;1.70;;;;;;;12.86;86.52;102795.00;4982838;28;20100;-80
2023/05/29 09:18:12;;;;;;;8.45;2.20;;;;;;;12.68;86.36;102789.22;4999305;28;20107;-78
2023/05/29 09:20:57;;;;;;;6.20;2.00;;;;;;;12.67;87.77;102791.88;4995127;28;20053;-77
2023/05/29 09:23:44;;;;;;;6.95;2.03;;;;;;;12.58;88.16;102788.53;4997023;28;20421;-77
2023/05/29 09:26:29;;;;;;;6.65;1.92;;;;;;;12.61;89.28;102785.84;4996918;28;20165;-77
2023/05/29 09:29:15;;;;;;;7.15;2.03;;;;;;;12.65;89.53;102783.09;4997112;28;20053;-80
2023/05/29 09:32:00;;;;;;;7.07;1.83;;;;;;;12.65;88.30;102785.75;4997023;28;20515;-79
2023/05/29 09:34:45;;;;;;;9.65;2.10;;;;;;;12.65;89.83;102781.31;4997461;28;20161;-76
2023/05/29 09:37:29;;;;;;;8.32;1.77;;;;;;;12.75;89.36;102792.63;4982513;28;20463;-77
2023/05/29 09:40:13;;;;;;;8.15;1.90;;;;;;;12.71;84.05;102782.94;4996879;28;20084;-79
2023/05/29 09:43:04;;;;;;;9.00;1.80;;;;;;;12.76;86.05;102791.69;4982498;28;20053;-75
2023/05/29 09:45:49;;;;;;;8.40;2.15;;;;;;;12.79;87.14;102794.25;4997050;28;20052;-77
2023/05/29 09:48:35;;;;;;;8.63;1.92;;;;;;;12.86;88.29;102777.25;4982159;28;20033;-78
2023/05/29 09:51:23;;;;;;;5.68;1.77;;;;;;;12.95;89.30;102780.59;4997334;28;20053;-77
2023/05/29 09:54:17;;;;;;;8.70;2.10;;;;;;;12.94;86.73;102790.38;4997778;28;20527;-77
2023/05/29 09:57:05;;;;;;;7.30;1.85;;;;;;;12.90;87.60;102789.56;4971058;28;20409;-77
2023/05/29 09:59:53;;;;;;;5.18;1.80;;;;;;;13.01;88.21;102788.44;4982340;28;20049;-78
2023/05/29 10:02:38;;;;;;;6.05;1.83;;;;;;;13.03;86.37;102797.25;4980126;28;20076;-79
2023/05/29 10:05:22;;;;;;;10.75;1.80;;;;;;;12.93;87.60;102793.06;4996476;28;20580;-79
2023/05/29 10:08:13;;;;;;;7.97;1.70;;;;;;;12.90;87.21;102794.91;4996061;28;20116;-78
2023/05/29 10:11:03;;;;;;;5.30;1.92;;;;;;;12.93;85.25;102798.38;4996999;28;20072;-79
2023/05/29 10:13:49;;;;;;;5.00;1.90;;;;;;;12.94;87.68;102789.50;4993463;28;20140;-79
2023/05/29 10:16:38;;;;;;;7.38;1.88;;;;;;;13.11;86.90;102794.38;4994982;28;20488;-77
2023/05/29 10:19:26;;;;;;;6.63;2.22;;;;;;;13.21;87.39;102798.56;4994459;28;20049;-77
2023/05/29 10:22:10;;;;;;;6.43;1.60;;;;;;;13.26;84.72;102787.81;4981771;28;20692;-79
2023/05/29 10:24:56;;;;;;;10.07;2.38;;;;;;;13.07;83.30;102800.72;4978353;28;20186;-77
2023/05/29 10:27:40;;;;;;;7.65;1.60;;;;;;;13.05;84.92;102782.13;4995974;28;20767;-78
2023/05/29 10:30:32;;;;;;;4.70;1.40;;;;;;;13.15;84.18;102788.09;4995803;28;20112;-78
2023/05/29 10:33:44;;;;;;;8.27;1.90;;;;;;;13.32;84.65;102785.00;4995932;28;20057;-79
2023/05/29 10:36:35;;;;;;;9.70;2.10;;;;;;;13.37;83.49;102775.13;4981520;28;20532;-79
2023/05/29 10:39:21;;;;;;;6.53;2.13;;;;;;;13.36;84.49;102786.69;4995262;28;20546;-80
2023/05/29 10:42:44;;;;;;;9.25;1.98;;;;;;;13.44;82.35;102778.47;4995737;28;20108;-81
2023/05/29 10:45:31;;;;;;;8.43;1.98;;;;;;;13.45;83.04;102774.88;4995898;28;20099;-81
2023/05/29 10:48:18;;;;;;;7.10;1.83;;;;;;;13.35;81.64;102778.72;4980937;28;20096;-77
2023/05/29 10:51:06;;;;;;;7.75;1.73;;;;;;;13.33;81.38;102801.84;4996800;28;20041;-80
2023/05/29 10:53:51;;;;;;;6.40;1.70;;;;;;;13.24;82.22;102789.66;4996289;28;20077;-77
2023/05/29 10:56:36;;;;;;;8.73;2.00;;;;;;;13.21;83.52;102785.28;4995873;28;20080;-78
2023/05/29 10:59:21;;;;;;;6.55;1.67;;;;;;;13.39;83.63;102778.59;4995527;28;20057;-80
2023/05/29 11:02:07;;;;;;;8.65;1.83;;;;;;;13.52;83.50;102779.16;4994696;28;20061;-78
2023/05/29 11:05:22;;;;;;;5.85;1.67;;;;;;;13.69;84.17;102776.03;4981407;28;20049;-78
2023/05/29 11:08:06;;;;;;;8.13;2.15;;;;;;;13.74;82.22;102775.94;4989579;28;20193;-79
2023/05/29 11:10:57;;;;;;;4.55;1.77;;;;;;;13.69;82.09;102777.84;4981396;28;20049;-78
2023/05/29 11:13:51;;;;;;;6.50;1.83;;;;;;;13.69;81.68;102778.69;4996945;28;20448;-78
2023/05/29 11:16:37;;;;;;;6.28;2.00;;;;;;;13.79;82.67;102783.78;4984530;28;20065;-78
2023/05/29 11:19:21;;;;;;;11.60;1.80;;;;;;;13.82;82.13;102781.03;4985628;28;20068;-78
2023/05/29 11:22:16;;;;;;;5.32;1.67;;;;;;;13.90;83.65;102775.50;4999997;28;20107;-77
2023/05/29 11:25:00;;;;;;;7.03;1.85;;;;;;;13.86;80.66;102774.72;5000052;28;21151;-81
2023/05/29 11:27:45;;;;;;;5.82;2.28;;;;;;;13.84;80.55;102780.06;4987470;28;20069;-78
2023/05/29 11:30:30;;;;;;;7.38;1.85;;;;;;;13.76;81.91;102783.84;4998294;28;20178;-77
2023/05/29 11:33:27;;;;;;;6.00;1.77;;;;;;;13.92;81.41;102795.84;4984048;28;20475;-79
2023/05/29 11:36:11;;;;;;;6.72;2.45;;;;;;;13.90;81.73;102787.00;5000154;28;20807;-79
2023/05/29 11:38:56;;;;;;;3.78;1.88;;;;;;;13.90;81.10;102780.81;4984706;28;20060;-78
2023/05/29 11:41:40;;;;;;;7.85;2.08;;;;;;;13.89;81.22;102787.06;5000071;28;21147;-78
2023/05/29 11:44:30;;;;;;;5.75;1.80;;;;;;;13.96;77.40;102775.31;4999882;28;20571;-81
2023/05/29 11:47:15;;;;;;;7.28;1.70;;;;;;;13.89;79.86;102782.59;4999500;28;20040;-80
2023/05/29 11:49:59;;;;;;;6.07;1.58;;;;;;;13.98;81.37;102784.13;4999575;28;20262;-81
2023/05/29 11:52:47;;;;;;;6.85;2.20;;;;;;;14.12;82.32;102791.72;4999242;28;20077;-80
2023/05/29 11:55:31;;;;;;;7.50;1.83;;;;;;;14.25;81.18;102769.13;4998529;28;20147;-80
2023/05/29 11:58:16;;;;;;;11.45;1.83;;;;;;;14.21;81.18;102786.09;4995613;28;20041;-78
2023/05/29 12:01:00;;;;;;;5.40;1.73;;;;;;;14.30;81.70;102779.63;4969661;28;20060;-78
2023/05/29 12:03:45;;;;;;;9.20;2.10;;;;;;;14.42;80.30;102775.72;4998782;28;20076;-81
2023/05/29 12:06:37;;;;;;;9.98;2.22;;;;;;;14.49;78.87;102777.25;4998947;28;20057;-81
2023/05/29 12:09:26;;;;;;;4.93;1.63;;;;;;;14.46;78.11;102779.16;4969479;28;20064;-80
2023/05/29 12:12:10;;;;;;;9.88;1.90;;;;;;;14.51;76.83;102786.06;4984099;28;20100;-77
2023/05/29 12:14:58;;;;;;;9.48;2.10;;;;;;;14.51;77.99;102780.75;4999408;28;20619;-78
2023/05/29 12:17:43;;;;;;;8.35;1.92;;;;;;;14.51;77.40;102786.06;4983961;28;20096;-79
2023/05/29 12:20:27;;;;;;;6.00;1.67;;;;;;;14.52;77.12;102784.28;4999510;28;20072;-79
2023/05/29 12:23:12;;;;;;;7.45;2.00;;;;;;;14.52;78.36;102781.63;4997752;28;20127;-80
2023/05/29 12:25:57;;;;;;;6.20;1.55;;;;;;;14.52;78.67;102773.63;4997738;28;20178;-79
2023/05/29 12:28:48;;;;;;;6.43;2.33;;;;;;;14.64;79.02;102777.69;4997567;28;20081;-80
2023/05/29 12:31:34;;;;;;;7.22;1.67;;;;;;;14.60;75.57;102774.25;4983699;28;20146;-80
2023/05/29 12:34:19;;;;;;;4.90;1.65;;;;;;;14.66;76.87;102778.53;4980747;28;20099;-79
2023/05/29 12:37:09;;;;;;;9.65;1.65;;;;;;;14.71;78.00;102773.91;4998541;28;20061;-79
2023/05/29 12:40:19;;;;;;;6.35;1.40;;;;;;;14.72;76.90;102765.03;4999306;28;20095;-80
2023/05/29 12:43:06;;;;;;;5.72;1.92;;;;;;;14.67;76.92;102769.63;4997752;28;20100;-80
2023/05/29 12:45:56;;;;;;;2.63;1.42;;;;;;;14.71;73.11;102773.91;4998439;28;20064;-79
2023/05/29 12:48:40;;;;;;;5.97;1.60;;;;;;;14.77;75.55;102776.41;4998813;28;20065;-79
2023/05/29 12:51:26;;;;;;;9.80;1.85;;;;;;;14.71;71.80;102768.56;4996808;28;20092;-81